Time;durP1;ratioP1;P1;durP2;ratioP2;P2;SDS_P1;SDS_P2;PMS_P1;PMS_P2;Temp;Humidity;BMP_temperature;BMP_pressure;BME280_temperature;BME280_humidity;BME280_pressure;Samples;Min_cycle;Max_cycle;Signal;HPM_P1;HPM_P2
2022/01/10 00:00:19;;;;;;;5.43;3.53;;;;;;;;;;4726882;30;20602;-90
2022/01/10 00:03:24;;;;;;;8.10;3.60;;;;;;;;;;4737306;30;20559;-91
2022/01/10 00:06:28;;;;;;;5.53;3.40;;;;;;;;;;4727040;30;20649;-90
2022/01/10 00:09:32;;;;;;;7.73;3.63;;;;;;;;;;4727868;30;20554;-90
2022/01/10 00:12:38;;;;;;;5.47;3.17;;;;;;;;;;4727923;30;20558;-91
2022/01/10 00:15:42;;;;;;;4.77;3.43;;;;;;;;;;4738300;30;20633;-90
2022/01/10 00:18:46;;;;;;;6.77;3.73;;;;;;;;;;4727869;30;20550;-90
2022/01/10 00:21:50;;;;;;;4.43;3.17;;;;;;;;;;4727433;30;20610;-90
2022/01/10 00:24:54;;;;;;;5.93;3.33;;;;;;;;;;4728138;30;20558;-90
2022/01/10 00:27:58;;;;;;;7.23;3.57;;;;;;;;;;4727980;30;21098;-90
2022/01/10 00:31:03;;;;;;;3.97;3.07;;;;;;;;;;4727570;30;20617;-90
2022/01/10 00:34:07;;;;;;;6.57;3.47;;;;;;;;;;4728190;30;20554;-90
2022/01/10 00:37:11;;;;;;;5.47;4.13;;;;;;;;;;4737669;30;20649;-90
2022/01/10 00:40:16;;;;;;;5.50;3.70;;;;;;;;;;4727879;30;20602;-91
2022/01/10 00:43:31;;;;;;;6.57;3.73;;;;;;;;;;4728574;30;20554;-90
2022/01/10 00:46:35;;;;;;;5.47;3.63;;;;;;;;;;4727235;30;21232;-90
2022/01/10 00:49:40;;;;;;;4.40;3.23;;;;;;;;;;4737349;30;20550;-90
2022/01/10 00:52:44;;;;;;;9.23;4.07;;;;;;;;;;4727036;30;21098;-90
2022/01/10 00:55:49;;;;;;;7.27;4.23;;;;;;;;;;4727315;30;21189;-90
2022/01/10 00:58:53;;;;;;;5.27;3.50;;;;;;;;;;4737415;30;20555;-90
2022/01/10 01:01:57;;;;;;;7.47;3.90;;;;;;;;;;4717123;30;20661;-90
2022/01/10 01:05:06;;;;;;;6.23;4.20;;;;;;;;;;4737990;30;20566;-91
2022/01/10 01:08:12;;;;;;;5.63;4.00;;;;;;;;;;4736856;30;20551;-91
2022/01/10 01:14:37;;;;;;;10.90;4.53;;;;;;;;;;4728366;30;20558;-91
2022/01/10 01:17:57;;;;;;;6.70;4.57;;;;;;;;;;4727842;30;20554;-90
2022/01/10 01:24:33;;;;;;;7.53;4.70;;;;;;;;;;4736980;30;20558;-92
2022/01/10 01:27:38;;;;;;;8.23;6.70;;;;;;;;;;4726263;30;20558;-91
2022/01/10 01:30:43;;;;;;;7.93;6.23;;;;;;;;;;4727408;30;20625;-91
2022/01/10 01:33:47;;;;;;;8.80;5.27;;;;;;;;;;4727465;30;20614;-91
2022/01/10 01:36:54;;;;;;;7.90;4.77;;;;;;;;;;4727891;30;20633;-91
2022/01/10 01:39:59;;;;;;;7.07;4.23;;;;;;;;;;4727592;30;20559;-91
2022/01/10 01:43:03;;;;;;;7.63;4.67;;;;;;;;;;4736788;30;20558;-91
2022/01/10 01:46:08;;;;;;;7.10;4.50;;;;;;;;;;4726042;30;20765;-91
2022/01/10 01:49:14;;;;;;;7.53;4.50;;;;;;;;;;4725768;30;20617;-91
2022/01/10 01:52:18;;;;;;;6.67;4.23;;;;;;;;;;4726336;30;20562;-90
2022/01/10 01:55:22;;;;;;;5.67;4.40;;;;;;;;;;4725498;30;20621;-91
2022/01/10 01:58:27;;;;;;;8.23;4.93;;;;;;;;;;4725758;30;20621;-91
2022/01/10 02:01:32;;;;;;;9.17;4.70;;;;;;;;;;4725999;30;20601;-91
2022/01/10 02:04:37;;;;;;;7.30;4.40;;;;;;;;;;4735809;30;21099;-91
2022/01/10 02:07:43;;;;;;;6.67;4.50;;;;;;;;;;4736177;30;20558;-91
2022/01/10 02:10:48;;;;;;;6.40;4.43;;;;;;;;;;4725795;30;20547;-91
2022/01/10 02:13:52;;;;;;;6.00;4.80;;;;;;;;;;4735137;30;20560;-91
2022/01/10 02:17:22;;;;;;;5.13;4.63;;;;;;;;;;4727933;30;20630;-91
2022/01/10 02:20:32;;;;;;;6.03;4.27;;;;;;;;;;4739358;30;20554;-91
2022/01/10 02:23:37;;;;;;;7.30;4.40;;;;;;;;;;4739361;30;21098;-91
2022/01/10 02:27:02;;;;;;;9.17;4.80;;;;;;;;;;4738974;30;20626;-91
2022/01/10 02:30:06;;;;;;;7.27;5.17;;;;;;;;;;4728739;30;20617;-90
2022/01/10 02:33:10;;;;;;;7.13;4.60;;;;;;;;;;4749154;30;20550;-91
2022/01/10 02:36:25;;;;;;;7.57;4.77;;;;;;;;;;4729172;30;20637;-91
2022/01/10 02:39:30;;;;;;;6.17;4.50;;;;;;;;;;4738679;30;20605;-90
2022/01/10 02:42:34;;;;;;;8.73;4.73;;;;;;;;;;4729740;30;20598;-91
2022/01/10 02:45:39;;;;;;;9.83;5.13;;;;;;;;;;4741574;30;20637;-91
2022/01/10 02:48:43;;;;;;;8.17;5.37;;;;;;;;;;4719157;30;20553;-90
2022/01/10 02:51:47;;;;;;;9.80;5.50;;;;;;;;;;4728592;30;20562;-91
2022/01/10 02:54:53;;;;;;;7.40;5.43;;;;;;;;;;4728704;30;20554;-91
2022/01/10 02:57:57;;;;;;;9.13;5.97;;;;;;;;;;4728732;30;20554;-91
2022/01/10 03:01:03;;;;;;;7.93;5.50;;;;;;;;;;4728360;30;20622;-91
2022/01/10 03:04:07;;;;;;;9.43;5.90;;;;;;;;;;4728908;30;20562;-91
2022/01/10 03:07:24;;;;;;;8.07;6.13;;;;;;;;;;4728329;30;20645;-91
2022/01/10 03:10:29;;;;;;;8.83;5.73;;;;;;;;;;4728839;30;20613;-91
2022/01/10 03:13:33;;;;;;;9.70;6.00;;;;;;;;;;4738503;30;20573;-91
2022/01/10 03:16:38;;;;;;;10.13;5.73;;;;;;;;;;4728009;30;20637;-91
2022/01/10 03:19:44;;;;;;;7.73;5.83;;;;;;;;;;4738371;30;20554;-91
2022/01/10 03:22:48;;;;;;;13.03;6.63;;;;;;;;;;4738140;30;20954;-91
2022/01/10 03:25:52;;;;;;;11.60;7.03;;;;;;;;;;4727889;30;20641;-90
2022/01/10 03:28:56;;;;;;;12.57;6.63;;;;;;;;;;4726852;30;20566;-90
2022/01/10 03:32:05;;;;;;;10.13;6.50;;;;;;;;;;4725357;30;20614;-90
2022/01/10 03:35:09;;;;;;;9.37;6.63;;;;;;;;;;4726874;30;20555;-90
2022/01/10 03:38:14;;;;;;;10.47;6.73;;;;;;;;;;4726958;30;20929;-89
2022/01/10 03:41:18;;;;;;;10.77;6.47;;;;;;;;;;4726666;30;20661;-90
2022/01/10 03:44:23;;;;;;;8.27;6.37;;;;;;;;;;4726497;30;20621;-90
2022/01/10 03:47:28;;;;;;;9.00;6.07;;;;;;;;;;4726244;30;20633;-90
2022/01/10 03:50:32;;;;;;;9.33;7.13;;;;;;;;;;4726386;30;20551;-90
2022/01/10 03:53:36;;;;;;;9.40;6.67;;;;;;;;;;4736897;30;20554;-90
2022/01/10 03:56:40;;;;;;;9.23;6.73;;;;;;;;;;4726155;30;20634;-89
2022/01/10 03:59:46;;;;;;;10.97;7.00;;;;;;;;;;4726240;30;20609;-90
2022/01/10 04:02:59;;;;;;;13.00;7.40;;;;;;;;;;4736053;30;21166;-90
2022/01/10 04:06:08;;;;;;;12.73;7.40;;;;;;;;;;4726545;30;20638;-90
2022/01/10 04:09:12;;;;;;;10.13;7.23;;;;;;;;;;4736026;30;21103;-90
2022/01/10 04:12:16;;;;;;;11.33;7.67;;;;;;;;;;4725835;30;20621;-90
2022/01/10 04:15:21;;;;;;;12.27;8.00;;;;;;;;;;4725946;30;20558;-90
2022/01/10 04:18:25;;;;;;;13.07;8.33;;;;;;;;;;4725954;30;20562;-90
2022/01/10 04:21:30;;;;;;;12.07;7.20;;;;;;;;;;4725893;30;20940;-90
2022/01/10 04:24:34;;;;;;;13.43;8.53;;;;;;;;;;4715807;30;20901;-90
2022/01/10 04:27:38;;;;;;;11.97;8.10;;;;;;;;;;4715929;30;21082;-90
2022/01/10 04:30:43;;;;;;;10.33;7.57;;;;;;;;;;4735769;30;20625;-90
2022/01/10 04:33:47;;;;;;;12.07;7.77;;;;;;;;;;4735656;30;20618;-90
2022/01/10 04:36:52;;;;;;;11.43;7.00;;;;;;;;;;4735513;30;21177;-90
2022/01/10 04:39:55;;;;;;;10.33;7.03;;;;;;;;;;4725571;30;20613;-90
2022/01/10 04:43:00;;;;;;;11.87;7.77;;;;;;;;;;4724966;30;20661;-90
2022/01/10 04:46:04;;;;;;;9.83;7.30;;;;;;;;;;4715741;30;20645;-90
2022/01/10 04:49:17;;;;;;;10.67;7.80;;;;;;;;;;4725852;30;20546;-90
2022/01/10 04:52:22;;;;;;;9.90;7.27;;;;;;;;;;4736316;30;20546;-90
2022/01/10 04:55:26;;;;;;;10.70;7.57;;;;;;;;;;4745289;30;20645;-90
2022/01/10 04:58:32;;;;;;;13.00;8.33;;;;;;;;;;4725795;30;20546;-90
2022/01/10 05:01:36;;;;;;;10.50;7.50;;;;;;;;;;4725106;30;21217;-90
2022/01/10 05:04:40;;;;;;;13.07;8.43;;;;;;;;;;4725815;30;20621;-90
2022/01/10 05:07:44;;;;;;;11.07;7.63;;;;;;;;;;4725341;30;20960;-90
2022/01/10 05:10:49;;;;;;;11.67;7.43;;;;;;;;;;4725325;30;20554;-90
2022/01/10 05:13:54;;;;;;;14.00;8.57;;;;;;;;;;4725244;30;20546;-90
2022/01/10 05:16:58;;;;;;;12.43;8.43;;;;;;;;;;4725242;30;20645;-90
2022/01/10 05:20:05;;;;;;;11.80;7.80;;;;;;;;;;4725653;30;20555;-90
2022/01/10 05:23:09;;;;;;;13.90;8.67;;;;;;;;;;4725718;30;20602;-90
2022/01/10 05:26:13;;;;;;;13.47;8.70;;;;;;;;;;4725165;30;20637;-90
2022/01/10 05:29:19;;;;;;;12.63;8.33;;;;;;;;;;4725214;30;20550;-90
2022/01/10 05:32:24;;;;;;;11.17;8.37;;;;;;;;;;4731725;30;20605;-90
2022/01/10 05:35:44;;;;;;;14.00;8.67;;;;;;;;;;4733692;30;20645;-90
2022/01/10 05:38:48;;;;;;;11.73;8.33;;;;;;;;;;4732405;30;20561;-89
2022/01/10 05:41:52;;;;;;;12.57;8.83;;;;;;;;;;4732004;30;21002;-90
2022/01/10 05:44:56;;;;;;;14.43;8.50;;;;;;;;;;4731855;30;20624;-90
2022/01/10 05:48:08;;;;;;;14.13;8.50;;;;;;;;;;4741942;30;20616;-90
2022/01/10 05:51:16;;;;;;;13.50;8.73;;;;;;;;;;4732468;30;20620;-90
2022/01/10 05:54:23;;;;;;;13.47;8.33;;;;;;;;;;4732199;30;20557;-89
2022/01/10 05:57:27;;;;;;;13.77;9.03;;;;;;;;;;4738099;30;20669;-90
2022/01/10 06:00:34;;;;;;;17.00;9.57;;;;;;;;;;4745999;30;20601;-89
2022/01/10 06:03:38;;;;;;;17.47;9.30;;;;;;;;;;4745762;30;21168;-90
2022/01/10 06:06:46;;;;;;;16.87;9.23;;;;;;;;;;4745689;30;20636;-89
2022/01/10 06:09:50;;;;;;;15.37;9.43;;;;;;;;;;4735635;30;20542;-88
2022/01/10 06:13:00;;;;;;;15.23;9.07;;;;;;;;;;4735534;30;20561;-91
2022/01/10 06:16:06;;;;;;;15.93;9.57;;;;;;;;;;4747159;30;20625;-89
2022/01/10 06:19:12;;;;;;;12.60;8.77;;;;;;;;;;4736767;30;20554;-90
2022/01/10 06:22:17;;;;;;;14.90;9.57;;;;;;;;;;4735112;30;20633;-90
2022/01/10 06:25:24;;;;;;;12.33;9.53;;;;;;;;;;4727567;30;20566;-90
2022/01/10 06:28:28;;;;;;;21.20;12.17;;;;;;;;;;4727877;30;20574;-90
2022/01/10 06:31:35;;;;;;;18.07;10.77;;;;;;;;;;4717666;30;20967;-90
2022/01/10 06:34:50;;;;;;;17.40;10.23;;;;;;;;;;4718728;30;20929;-90
2022/01/10 06:37:55;;;;;;;17.60;10.70;;;;;;;;;;4727562;30;20908;-90
2022/01/10 06:41:01;;;;;;;14.43;9.67;;;;;;;;;;4727634;30;20927;-90
2022/01/10 06:44:06;;;;;;;18.97;9.97;;;;;;;;;;4717684;30;20554;-89
2022/01/10 06:47:10;;;;;;;14.77;9.57;;;;;;;;;;4717469;30;20637;-89
2022/01/10 06:50:14;;;;;;;15.00;9.97;;;;;;;;;;4717902;30;20558;-89
2022/01/10 06:53:22;;;;;;;15.33;9.53;;;;;;;;;;4727481;30;20558;-89
2022/01/10 06:56:26;;;;;;;18.50;10.90;;;;;;;;;;4717418;30;20641;-87
2022/01/10 06:59:31;;;;;;;17.77;10.47;;;;;;;;;;4717826;30;20558;-87
2022/01/10 07:02:35;;;;;;;17.00;10.40;;;;;;;;;;4727142;30;20602;-87
2022/01/10 07:05:39;;;;;;;18.30;11.00;;;;;;;;;;4716962;30;20650;-87
2022/01/10 07:08:49;;;;;;;15.07;9.53;;;;;;;;;;4727775;30;20889;-88
2022/01/10 07:11:54;;;;;;;17.30;10.33;;;;;;;;;;4726975;30;21126;-90
2022/01/10 07:14:58;;;;;;;14.80;10.73;;;;;;;;;;4717181;30;20632;-89
2022/01/10 07:18:03;;;;;;;18.20;10.90;;;;;;;;;;4726769;30;20617;-89
2022/01/10 07:21:11;;;;;;;18.17;10.13;;;;;;;;;;4717765;30;20559;-91
2022/01/10 07:24:16;;;;;;;16.67;11.40;;;;;;;;;;4727170;30;20610;-90
2022/01/10 07:27:20;;;;;;;18.50;11.17;;;;;;;;;;4726810;30;20854;-90
2022/01/10 07:30:25;;;;;;;18.77;11.27;;;;;;;;;;4716419;30;20625;-89
2022/01/10 07:33:29;;;;;;;18.17;10.43;;;;;;;;;;4717031;30;20971;-89
2022/01/10 07:36:35;;;;;;;18.83;10.70;;;;;;;;;;4716242;30;20641;-89
2022/01/10 07:39:39;;;;;;;13.70;9.40;;;;;;;;;;4716441;30;20574;-90
2022/01/10 07:42:43;;;;;;;15.37;10.20;;;;;;;;;;4716537;30;20602;-89
2022/01/10 07:45:53;;;;;;;18.80;9.87;;;;;;;;;;4716901;30;20641;-87
2022/01/10 07:48:57;;;;;;;15.27;9.73;;;;;;;;;;4726440;30;20558;-87
2022/01/10 07:52:01;;;;;;;15.90;9.47;;;;;;;;;;4716866;30;20554;-88
2022/01/10 07:55:06;;;;;;;14.87;9.73;;;;;;;;;;4726296;30;20554;-88
2022/01/10 07:58:11;;;;;;;17.17;10.07;;;;;;;;;;4726599;30;20554;-88
2022/01/10 08:01:15;;;;;;;17.80;9.10;;;;;;;;;;4726467;30;20621;-88
2022/01/10 08:04:19;;;;;;;12.23;8.93;;;;;;;;;;4718341;30;21148;-91
2022/01/10 08:07:23;;;;;;;16.23;9.43;;;;;;;;;;4733540;30;20633;-90
2022/01/10 08:10:27;;;;;;;15.17;10.60;;;;;;;;;;4743497;30;20601;-90
2022/01/10 08:13:31;;;;;;;20.73;12.60;;;;;;;;;;4725726;30;20626;-90
2022/01/10 08:16:35;;;;;;;18.07;9.93;;;;;;;;;;4725997;30;20633;-90
2022/01/10 08:19:39;;;;;;;17.50;9.83;;;;;;;;;;4735310;30;21090;-91
2022/01/10 08:22:43;;;;;;;14.13;8.23;;;;;;;;;;4725834;30;20622;-90
2022/01/10 08:25:47;;;;;;;15.00;8.80;;;;;;;;;;4738219;30;21259;-91
2022/01/10 08:28:51;;;;;;;19.30;9.70;;;;;;;;;;4732970;30;20597;-90
2022/01/10 08:31:56;;;;;;;20.90;8.60;;;;;;;;;;4732834;30;20620;-90
2022/01/10 08:35:00;;;;;;;15.90;9.73;;;;;;;;;;4743103;30;20629;-90
2022/01/10 08:38:04;;;;;;;15.63;10.53;;;;;;;;;;4733680;30;20557;-90
2022/01/10 08:41:09;;;;;;;16.80;9.23;;;;;;;;;;4733047;30;20609;-91
2022/01/10 08:44:17;;;;;;;15.93;9.57;;;;;;;;;;4752982;30;20616;-90
2022/01/10 08:47:21;;;;;;;16.63;10.17;;;;;;;;;;4743029;30;20990;-90
2022/01/10 08:50:27;;;;;;;16.37;9.27;;;;;;;;;;4736747;30;20597;-90
2022/01/10 08:53:31;;;;;;;14.73;9.27;;;;;;;;;;4743126;30;20613;-91
2022/01/10 08:56:35;;;;;;;14.97;8.50;;;;;;;;;;4732541;30;20653;-91
2022/01/10 08:59:39;;;;;;;13.87;9.30;;;;;;;;;;4725547;30;20601;-90
2022/01/10 09:02:44;;;;;;;13.37;8.83;;;;;;;;;;4724627;30;20641;-91
2022/01/10 09:05:47;;;;;;;16.07;10.50;;;;;;;;;;4732962;30;20636;-91
2022/01/10 09:08:52;;;;;;;20.37;10.57;;;;;;;;;;4715422;30;20554;-91
2022/01/10 09:11:56;;;;;;;21.73;11.83;;;;;;;;;;4715689;30;20911;-90
2022/01/10 09:15:00;;;;;;;17.03;10.40;;;;;;;;;;4725496;30;20554;-90
2022/01/10 09:18:04;;;;;;;14.43;9.80;;;;;;;;;;4741872;30;20632;-91
2022/01/10 09:21:08;;;;;;;17.10;9.17;;;;;;;;;;4742482;30;20620;-90
2022/01/10 09:24:13;;;;;;;13.90;9.10;;;;;;;;;;4735428;30;20653;-90
2022/01/10 09:27:17;;;;;;;16.43;9.83;;;;;;;;;;4786509;25;20703;-91
2022/01/10 09:30:23;;;;;;;71.07;36.10;;;;;;;;;;4740550;30;20886;-91
2022/01/10 09:33:27;;;;;;;41.37;20.60;;;;;;;;;;4739372;30;20581;-90
2022/01/10 09:36:34;;;;;;;32.83;18.37;;;;;;;;;;4749157;30;20657;-90
2022/01/10 09:39:38;;;;;;;18.33;11.60;;;;;;;;;;4752181;30;20600;-90
2022/01/10 09:42:42;;;;;;;17.87;10.43;;;;;;;;;;4733099;30;20569;-88
2022/01/10 09:45:50;;;;;;;19.97;12.90;;;;;;;;;;4751667;30;20644;-91
2022/01/10 09:48:57;;;;;;;29.77;16.87;;;;;;;;;;4742142;30;20615;-91
2022/01/10 09:52:04;;;;;;;60.87;29.70;;;;;;;;;;4750009;30;20552;-91
2022/01/10 09:55:08;;;;;;;21.90;13.73;;;;;;;;;;4739621;30;20548;-90
2022/01/10 09:58:13;;;;;;;14.53;9.47;;;;;;;;;;4749117;30;20603;-90
2022/01/10 10:01:18;;;;;;;12.57;7.73;;;;;;;;;;4750137;30;20206;-90
2022/01/10 10:04:21;;;;;;;15.53;8.43;;;;;;;;;;4759823;30;20218;-87
2022/01/10 10:07:26;;;;;;;17.03;8.10;;;;;;;;;;4739913;30;20230;-87
2022/01/10 10:10:31;;;;;;;12.90;8.10;;;;;;;;;;4760111;30;20553;-86
2022/01/10 10:13:44;;;;;;;15.00;8.57;;;;;;;;;;4739783;30;20608;-87
2022/01/10 10:16:52;;;;;;;14.53;8.23;;;;;;;;;;4739868;30;20234;-89
2022/01/10 10:19:56;;;;;;;16.20;8.97;;;;;;;;;;4739462;30;20210;-89
2022/01/10 10:23:03;;;;;;;16.17;8.80;;;;;;;;;;4731725;30;20572;-89
2022/01/10 10:26:07;;;;;;;15.83;8.10;;;;;;;;;;4741262;30;20648;-89
2022/01/10 10:29:14;;;;;;;15.00;8.73;;;;;;;;;;4731457;30;20549;-89
2022/01/10 10:32:28;;;;;;;14.57;9.17;;;;;;;;;;4731649;30;20562;-90
2022/01/10 10:35:33;;;;;;;13.63;8.33;;;;;;;;;;4732589;30;20194;-90
2022/01/10 10:38:37;;;;;;;14.57;9.70;;;;;;;;;;4731859;30;20191;-90
2022/01/10 10:41:42;;;;;;;15.90;9.17;;;;;;;;;;4745286;30;20624;-89
2022/01/10 10:44:46;;;;;;;14.80;9.10;;;;;;;;;;4738845;30;20235;-89
2022/01/10 10:47:50;;;;;;;16.07;9.33;;;;;;;;;;4736247;30;20620;-89
2022/01/10 10:50:58;;;;;;;19.93;9.20;;;;;;;;;;4734714;30;20214;-88
2022/01/10 10:54:08;;;;;;;14.63;9.23;;;;;;;;;;4735066;30;20550;-88
2022/01/10 10:57:14;;;;;;;16.70;9.33;;;;;;;;;;4734870;30;20235;-90
2022/01/10 11:00:19;;;;;;;12.17;9.03;;;;;;;;;;4734433;30;20210;-89
2022/01/10 11:03:24;;;;;;;14.77;8.93;;;;;;;;;;4734618;30;20552;-89
2022/01/10 11:06:29;;;;;;;18.97;9.63;;;;;;;;;;4745051;30;20230;-87
2022/01/10 11:09:33;;;;;;;14.03;8.83;;;;;;;;;;4734884;30;20540;-88
2022/01/10 11:12:41;;;;;;;17.87;10.07;;;;;;;;;;4734850;30;20195;-87
2022/01/10 11:15:45;;;;;;;13.73;9.73;;;;;;;;;;4734421;30;20231;-89
2022/01/10 11:18:49;;;;;;;19.20;9.33;;;;;;;;;;4744404;30;20211;-89
2022/01/10 11:22:07;;;;;;;13.67;9.10;;;;;;;;;;4744396;30;20199;-90
2022/01/10 11:25:32;;;;;;;17.40;9.13;;;;;;;;;;4734491;30;20227;-88
2022/01/10 11:28:50;;;;;;;15.23;9.77;;;;;;;;;;4734343;30;20648;-88
2022/01/10 11:31:55;;;;;;;16.40;8.73;;;;;;;;;;4744523;30;20195;-88
2022/01/10 11:35:05;;;;;;;15.57;8.67;;;;;;;;;;4733850;30;20202;-87
2022/01/10 11:38:22;;;;;;;16.13;8.03;;;;;;;;;;4724114;30;20207;-86
2022/01/10 11:41:29;;;;;;;13.90;9.33;;;;;;;;;;4724169;30;20203;-87
2022/01/10 11:44:33;;;;;;;15.77;9.73;;;;;;;;;;4734375;30;20223;-86
2022/01/10 11:48:02;;;;;;;17.93;9.23;;;;;;;;;;4734932;30;20226;-87
2022/01/10 11:51:12;;;;;;;17.53;9.23;;;;;;;;;;4724343;30;20191;-87
2022/01/10 11:54:18;;;;;;;13.70;8.93;;;;;;;;;;4732903;30;20207;-86
2022/01/10 11:57:26;;;;;;;16.47;9.23;;;;;;;;;;4733803;30;20231;-86
2022/01/10 12:00:35;;;;;;;16.80;9.60;;;;;;;;;;4733853;30;20211;-86
2022/01/10 12:03:41;;;;;;;14.80;8.63;;;;;;;;;;4733785;30;20671;-86
2022/01/10 12:06:46;;;;;;;15.27;8.97;;;;;;;;;;4733403;30;20227;-89
2022/01/10 12:09:51;;;;;;;16.63;9.57;;;;;;;;;;4743547;30;20195;-89
2022/01/10 12:13:05;;;;;;;14.07;9.50;;;;;;;;;;4761686;30;20203;-89
2022/01/10 12:16:10;;;;;;;17.10;10.80;;;;;;;;;;4740809;30;20226;-89
2022/01/10 12:19:14;;;;;;;17.33;10.37;;;;;;;;;;4741261;30;20186;-87
2022/01/10 12:22:20;;;;;;;16.87;9.67;;;;;;;;;;4742491;30;20258;-91
2022/01/10 12:25:24;;;;;;;17.47;10.33;;;;;;;;;;4751218;30;20242;-90
2022/01/10 12:28:29;;;;;;;19.13;11.27;;;;;;;;;;4741088;30;20190;-86
2022/01/10 12:31:34;;;;;;;21.90;10.67;;;;;;;;;;4733716;30;20195;-87
2022/01/10 12:34:41;;;;;;;20.93;11.43;;;;;;;;;;4723541;30;20195;-87
2022/01/10 12:37:46;;;;;;;18.37;10.60;;;;;;;;;;4733437;30;20199;-87
2022/01/10 12:40:51;;;;;;;18.93;9.30;;;;;;;;;;4723568;30;20214;-87
2022/01/10 12:43:57;;;;;;;16.30;9.33;;;;;;;;;;4723547;30;20227;-87
2022/01/10 12:47:02;;;;;;;19.83;11.00;;;;;;;;;;4723175;30;20222;-87
2022/01/10 12:50:06;;;;;;;15.33;9.97;;;;;;;;;;4723407;30;20203;-86
2022/01/10 12:53:11;;;;;;;15.00;9.17;;;;;;;;;;4723555;30;20191;-90
2022/01/10 12:56:16;;;;;;;17.17;9.10;;;;;;;;;;4742861;30;20223;-88
2022/01/10 12:59:25;;;;;;;16.10;9.53;;;;;;;;;;4732528;30;20195;-87
2022/01/10 13:02:32;;;;;;;14.87;9.10;;;;;;;;;;4732878;30;20187;-87
2022/01/10 13:05:37;;;;;;;14.47;8.87;;;;;;;;;;4722742;30;20230;-87
2022/01/10 13:08:41;;;;;;;13.43;8.10;;;;;;;;;;4733162;30;20187;-90
2022/01/10 13:11:51;;;;;;;20.37;9.70;;;;;;;;;;4738642;30;20210;-87
2022/01/10 13:15:10;;;;;;;14.80;8.40;;;;;;;;;;4740339;30;20186;-87
2022/01/10 13:18:17;;;;;;;26.40;12.30;;;;;;;;;;4739942;30;20198;-88
2022/01/10 13:21:29;;;;;;;10.83;7.63;;;;;;;;;;4740110;30;20210;-90
2022/01/10 13:24:44;;;;;;;22.13;11.80;;;;;;;;;;4740075;30;20223;-88
2022/01/10 13:27:53;;;;;;;15.00;8.33;;;;;;;;;;4741285;30;20222;-91
2022/01/10 13:30:57;;;;;;;12.83;7.70;;;;;;;;;;4759898;30;20206;-90
2022/01/10 13:34:02;;;;;;;12.13;7.70;;;;;;;;;;4739561;30;20210;-90
2022/01/10 13:37:06;;;;;;;23.67;13.37;;;;;;;;;;4749393;30;20623;-90
2022/01/10 13:40:16;;;;;;;9.80;6.87;;;;;;;;;;4750496;30;20898;-87
2022/01/10 13:43:28;;;;;;;12.67;6.73;;;;;;;;;;4739564;30;20190;-91
2022/01/10 13:46:32;;;;;;;11.50;7.03;;;;;;;;;;4722028;30;20645;-91
2022/01/10 13:49:36;;;;;;;11.17;7.07;;;;;;;;;;4732490;30;20532;-91
2022/01/10 13:53:01;;;;;;;12.27;6.77;;;;;;;;;;4732098;30;20199;-89
2022/01/10 13:56:18;;;;;;;13.67;6.53;;;;;;;;;;4745726;30;20211;-91
2022/01/10 14:03:44;;;;;;;13.23;6.43;;;;;;;;;;4744051;30;20550;-92
2022/01/10 14:06:48;;;;;;;14.43;6.83;;;;;;;;;;4725078;30;20644;-84
2022/01/10 14:09:54;;;;;;;13.33;6.93;;;;;;;;;;4751530;30;20548;-85
2022/01/10 14:12:58;;;;;;;12.50;7.07;;;;;;;;;;4739688;30;20198;-83
2022/01/10 14:16:02;;;;;;;9.60;6.50;;;;;;;;;;4739863;30;20230;-87
2022/01/10 14:19:11;;;;;;;10.33;6.63;;;;;;;;;;4763020;30;20218;-86
2022/01/10 14:22:16;;;;;;;10.43;5.17;;;;;;;;;;4753191;30;20198;-86
2022/01/10 14:25:22;;;;;;;9.93;5.97;;;;;;;;;;4752619;30;20234;-88
2022/01/10 14:28:26;;;;;;;11.00;6.37;;;;;;;;;;4752555;30;20565;-87
2022/01/10 14:31:31;;;;;;;12.27;6.77;;;;;;;;;;4748980;30;20207;-87
2022/01/10 14:34:36;;;;;;;11.73;6.87;;;;;;;;;;4724906;30;20198;-89
2022/01/10 14:37:40;;;;;;;11.00;7.23;;;;;;;;;;4734983;30;20644;-90
2022/01/10 14:40:44;;;;;;;11.00;7.87;;;;;;;;;;4729304;30;20639;-89
2022/01/10 14:43:48;;;;;;;16.17;9.07;;;;;;;;;;4751679;30;20607;-86
2022/01/10 14:46:53;;;;;;;12.20;7.73;;;;;;;;;;4740275;30;21223;-90
2022/01/10 14:49:57;;;;;;;11.80;7.93;;;;;;;;;;4740789;30;20620;-88
2022/01/10 14:53:02;;;;;;;15.27;9.00;;;;;;;;;;4734264;30;20605;-87
2022/01/10 14:56:09;;;;;;;21.67;16.40;;;;;;;;;;4732421;30;21212;-88
2022/01/10 14:59:13;;;;;;;11.90;7.27;;;;;;;;;;4724330;30;20943;-88
2022/01/10 15:02:17;;;;;;;11.47;6.67;;;;;;;;;;4734566;30;20616;-88
2022/01/10 15:05:22;;;;;;;12.27;6.57;;;;;;;;;;4734508;30;21227;-87
2022/01/10 15:08:27;;;;;;;10.57;6.10;;;;;;;;;;4724671;30;20554;-87
2022/01/10 15:11:32;;;;;;;12.27;7.17;;;;;;;;;;4734634;30;20566;-88
2022/01/10 15:15:28;;;;;;;8.97;5.50;;;;;;;;;;4744694;30;20549;-88
2022/01/10 15:18:32;;;;;;;13.27;7.00;;;;;;;;;;4724553;30;20550;-86
2022/01/10 15:21:40;;;;;;;9.73;6.60;;;;;;;;;;4724542;30;20565;-87
2022/01/10 15:24:45;;;;;;;10.43;5.93;;;;;;;;;;4744011;30;20668;-89
2022/01/10 15:27:53;;;;;;;10.17;6.50;;;;;;;;;;4731481;25;20696;-89
2022/01/10 18:39:53;;;;;;;14.10;7.87;;;;;;;;;;4681601;30;21231;-89
2022/01/10 18:43:05;;;;;;;13.43;8.37;;;;;;;;;;4656653;30;20550;-88
2022/01/10 18:46:19;;;;;;;16.93;8.97;;;;;;;;;;4659640;30;20653;-88
2022/01/10 18:49:24;;;;;;;15.00;8.87;;;;;;;;;;4660571;30;20947;-88
2022/01/10 18:52:28;;;;;;;14.43;9.27;;;;;;;;;;4669210;30;20951;-89
2022/01/10 18:55:31;;;;;;;12.97;8.97;;;;;;;;;;4682344;30;20553;-89
2022/01/10 18:58:36;;;;;;;16.80;9.03;;;;;;;;;;4725398;24;20696;-88
2022/01/10 19:01:40;;;;;;;12.40;8.63;;;;;;;;;;4721131;30;20950;-88
2022/01/10 19:04:44;;;;;;;15.43;8.83;;;;;;;;;;4724469;30;20612;-89
2022/01/10 19:07:49;;;;;;;12.93;8.90;;;;;;;;;;4724170;30;20911;-88
2022/01/10 19:10:56;;;;;;;15.80;9.10;;;;;;;;;;4726825;30;20582;-88
2022/01/10 19:14:00;;;;;;;14.07;8.40;;;;;;;;;;4716696;30;20570;-89
2022/01/10 19:17:09;;;;;;;16.27;9.83;;;;;;;;;;4706963;30;20550;-89
2022/01/10 19:20:15;;;;;;;29.00;16.17;;;;;;;;;;4706813;30;20629;-88
2022/01/10 19:23:21;;;;;;;16.73;10.57;;;;;;;;;;4706707;30;21128;-89
2022/01/10 19:26:26;;;;;;;12.20;8.27;;;;;;;;;;4716299;30;20637;-89
2022/01/10 19:29:30;;;;;;;13.57;9.17;;;;;;;;;;4706714;30;20641;-89
2022/01/10 19:32:36;;;;;;;13.80;8.57;;;;;;;;;;4737107;30;20935;-88
2022/01/10 19:35:40;;;;;;;16.00;8.87;;;;;;;;;;4716742;30;20554;-88
2022/01/10 19:38:44;;;;;;;15.37;8.23;;;;;;;;;;4706681;30;20633;-88
2022/01/10 19:41:49;;;;;;;11.70;7.20;;;;;;;;;;4700710;30;20606;-88
2022/01/10 19:44:53;;;;;;;11.13;7.70;;;;;;;;;;4706791;30;20550;-88
2022/01/10 19:47:57;;;;;;;13.50;7.73;;;;;;;;;;4706346;30;20595;-88
2022/01/10 19:51:01;;;;;;;19.23;8.30;;;;;;;;;;4706179;30;20574;-88
2022/01/10 19:54:05;;;;;;;19.00;10.27;;;;;;;;;;4726572;30;20559;-88
2022/01/10 19:57:09;;;;;;;11.73;8.27;;;;;;;;;;4716319;30;20562;-88
2022/01/10 20:00:18;;;;;;;16.73;9.93;;;;;;;;;;4716082;30;20649;-88
2022/01/10 20:03:23;;;;;;;18.93;10.33;;;;;;;;;;4713303;30;20602;-88
2022/01/10 20:06:27;;;;;;;14.83;9.17;;;;;;;;;;4716211;30;20661;-88
2022/01/10 20:09:33;;;;;;;19.03;10.90;;;;;;;;;;4715144;30;20629;-88
2022/01/10 20:12:37;;;;;;;14.87;9.10;;;;;;;;;;4715709;30;21118;-88
2022/01/10 20:15:41;;;;;;;13.47;7.97;;;;;;;;;;4705755;30;20550;-88
2022/01/10 20:18:45;;;;;;;12.33;8.03;;;;;;;;;;4716686;30;21209;-88
2022/01/10 20:21:48;;;;;;;11.73;7.20;;;;;;;;;;4715978;30;20566;-88
2022/01/10 20:24:52;;;;;;;14.83;8.07;;;;;;;;;;4698901;30;20627;-88
2022/01/10 20:27:59;;;;;;;11.73;7.83;;;;;;;;;;4708450;30;20599;-88
2022/01/10 20:31:04;;;;;;;13.27;8.63;;;;;;;;;;4708250;30;20575;-88
2022/01/10 20:34:08;;;;;;;17.00;10.13;;;;;;;;;;4709413;30;20563;-88
2022/01/10 20:37:12;;;;;;;12.73;7.93;;;;;;;;;;4708428;30;20571;-88
2022/01/10 20:40:18;;;;;;;11.83;7.43;;;;;;;;;;4707973;30;20634;-87
2022/01/10 20:43:24;;;;;;;14.03;8.50;;;;;;;;;;4708378;30;20555;-86
2022/01/10 20:46:28;;;;;;;11.33;7.73;;;;;;;;;;4697984;30;20623;-85
2022/01/10 20:49:33;;;;;;;14.07;8.00;;;;;;;;;;4707602;30;20638;-85
2022/01/10 20:52:37;;;;;;;13.30;7.83;;;;;;;;;;4723728;30;20614;-85
2022/01/10 20:55:41;;;;;;;15.10;8.10;;;;;;;;;;4715269;30;21086;-86
2022/01/10 20:58:46;;;;;;;11.87;7.87;;;;;;;;;;4714942;30;20653;-86
2022/01/10 21:01:50;;;;;;;12.97;8.67;;;;;;;;;;4715059;30;20566;-85
2022/01/10 21:04:55;;;;;;;13.57;8.33;;;;;;;;;;4705320;30;20554;-86
2022/01/10 21:07:59;;;;;;;15.17;8.50;;;;;;;;;;4714718;30;20578;-87
2022/01/10 21:11:03;;;;;;;12.63;7.60;;;;;;;;;;4696966;30;20606;-87
2022/01/10 21:14:09;;;;;;;10.20;7.10;;;;;;;;;;4707528;30;20889;-87
2022/01/10 21:17:14;;;;;;;12.60;7.63;;;;;;;;;;4717487;30;20560;-87
2022/01/10 21:20:19;;;;;;;14.50;7.80;;;;;;;;;;4707371;30;20627;-87
2022/01/10 21:23:28;;;;;;;11.73;7.50;;;;;;;;;;4707340;30;20551;-86
2022/01/10 21:26:35;;;;;;;13.33;8.20;;;;;;;;;;4707018;30;21000;-87
2022/01/10 21:29:39;;;;;;;17.23;8.93;;;;;;;;;;4687474;30;20984;-87
2022/01/10 21:32:43;;;;;;;13.23;8.33;;;;;;;;;;4707251;30;20559;-87
2022/01/10 21:35:47;;;;;;;13.63;8.40;;;;;;;;;;4707291;30;20579;-87
2022/01/10 21:38:52;;;;;;;14.00;8.17;;;;;;;;;;4706855;30;20646;-86